Time;durP1;ratioP1;P1;durP2;ratioP2;P2;SDS_P1;SDS_P2;PMS_P1;PMS_P2;Temp;Humidity;BMP_temperature;BMP_pressure;BME280_temperature;BME280_humidity;BME280_pressure;Samples;Min_cycle;Max_cycle;Signal;HPM_P1;HPM_P2
2024/03/28 00:01:11;;;;;;;7.47;4.83;;;9.10;99.90;9.00;97454.00;;;;4892284;28;122339;-63
2024/03/28 00:03:36;;;;;;;8.47;5.07;;;9.10;99.90;9.00;97457.00;;;;4890169;28;93410;-63
2024/03/28 00:06:03;;;;;;;8.20;6.37;;;9.10;99.90;9.00;97463.00;;;;4893629;28;107750;-63
2024/03/28 00:08:30;;;;;;;8.33;5.90;;;9.10;99.90;8.90;97459.00;;;;4893545;28;94183;-63
2024/03/28 00:10:55;;;;;;;9.33;5.07;;;9.10;99.90;8.90;97447.00;;;;4897852;28;94013;-63
2024/03/28 00:13:22;;;;;;;9.80;6.50;;;9.00;99.90;8.90;97449.00;;;;4893946;28;109744;-63
2024/03/28 00:16:05;;;;;;;4.57;3.83;;;9.00;99.90;8.80;97440.00;;;;4896512;28;92881;-63
2024/03/28 00:18:31;;;;;;;10.67;6.13;;;9.00;99.90;8.80;97449.00;;;;4892274;28;94251;-63
2024/03/28 00:20:59;;;;;;;7.50;5.00;;;8.90;99.90;8.80;97442.00;;;;4893398;28;93520;-64
2024/03/28 00:23:26;;;;;;;5.73;4.57;;;8.90;99.90;8.70;97442.00;;;;4897241;28;97741;-64
2024/03/28 00:25:59;;;;;;;9.10;5.80;;;8.80;99.90;8.70;97435.00;;;;4896823;28;95038;-63
2024/03/28 00:28:25;;;;;;;7.50;6.03;;;8.80;99.90;8.70;97431.00;;;;4893744;28;112762;-63
2024/03/28 00:30:52;;;;;;;9.30;6.20;;;8.80;99.90;8.60;97426.00;;;;4892868;28;112441;-63
2024/03/28 00:33:18;;;;;;;19.63;5.70;;;8.80;99.90;8.60;97421.00;;;;4895272;28;92592;-63
2024/03/28 00:35:49;;;;;;;11.10;6.43;;;8.70;99.90;8.60;97417.00;;;;4893438;28;100947;-63
2024/03/28 00:38:16;;;;;;;7.27;4.90;;;8.70;99.90;8.50;97415.00;;;;4902889;28;116231;-63
2024/03/28 00:40:51;;;;;;;8.03;4.97;;;8.60;99.90;8.40;97402.00;;;;4894428;28;114435;-63
2024/03/28 00:43:17;;;;;;;7.13;6.27;;;8.60;99.90;8.40;97402.00;;;;4895260;28;92905;-63
2024/03/28 00:45:43;;;;;;;7.60;5.27;;;8.50;99.90;8.30;97412.00;;;;4897790;28;93305;-63
2024/03/28 00:48:09;;;;;;;7.20;4.30;;;8.50;99.90;8.30;97405.00;;;;4896300;28;94069;-63
2024/03/28 00:50:35;;;;;;;8.20;5.17;;;8.40;99.90;8.30;97414.00;;;;4889509;28;93589;-63
2024/03/28 00:53:02;;;;;;;10.00;6.67;;;8.40;99.90;8.30;97417.00;;;;4894503;28;101518;-63
2024/03/28 00:55:28;;;;;;;7.57;5.47;;;8.40;99.90;8.20;97414.00;;;;4897543;28;92892;-63
2024/03/28 00:57:54;;;;;;;7.40;6.07;;;8.40;99.90;8.20;97413.00;;;;4889998;28;102272;-64
2024/03/28 01:00:20;;;;;;;6.70;4.73;;;8.30;99.90;8.20;97418.00;;;;4894177;28;120736;-63
2024/03/28 01:02:46;;;;;;;5.47;4.43;;;8.30;99.90;8.20;97412.00;;;;4895800;28;92926;-63
2024/03/28 01:05:12;;;;;;;6.23;5.10;;;8.20;99.90;8.10;97402.00;;;;4892761;28;109934;-63
2024/03/28 01:07:38;;;;;;;7.17;5.73;;;8.30;99.90;8.10;97406.00;;;;4894508;28;122264;-63
2024/03/28 01:10:04;;;;;;;8.27;6.47;;;8.20;99.90;8.00;97393.00;;;;4891263;28;122675;-63
2024/03/28 01:12:30;;;;;;;5.97;4.87;;;8.20;99.90;8.00;97397.00;;;;4895060;28;101423;-63
2024/03/28 01:14:56;;;;;;;6.33;5.67;;;8.10;99.90;8.00;97388.00;;;;4897180;28;107339;-63
2024/03/28 01:17:23;;;;;;;8.30;6.00;;;8.10;99.90;7.90;97386.00;;;;4896120;28;93156;-63
2024/03/28 01:19:50;;;;;;;9.83;6.10;;;8.00;99.90;7.90;97382.00;;;;4901487;28;93113;-63
2024/03/28 01:22:15;;;;;;;8.53;5.70;;;8.10;99.90;7.90;97384.00;;;;4895437;28;104432;-63
2024/03/28 01:24:41;;;;;;;9.83;5.43;;;8.00;99.90;7.90;97380.00;;;;4897916;28;109254;-63
2024/03/28 01:27:07;;;;;;;10.13;6.10;;;8.00;99.90;7.90;97375.00;;;;4895808;28;120903;-63
2024/03/28 01:29:32;;;;;;;7.40;6.40;;;8.00;99.90;7.90;97379.00;;;;4902645;28;103139;-64
2024/03/28 01:31:58;;;;;;;7.50;4.40;;;8.00;99.90;7.90;97377.00;;;;4895310;28;109157;-63
2024/03/28 01:34:26;;;;;;;6.50;5.33;;;8.00;99.90;7.90;97371.00;;;;4897486;28;94924;-64
2024/03/28 01:36:52;;;;;;;7.40;5.23;;;7.90;99.90;7.80;97378.00;;;;4897808;28;93551;-63
2024/03/28 01:39:18;;;;;;;7.30;5.03;;;7.90;99.90;7.80;97382.00;;;;4897145;28;113791;-64
2024/03/28 01:41:52;;;;;;;8.27;6.30;;;7.90;99.90;7.80;97375.00;;;;4893897;28;110088;-63
2024/03/28 01:44:20;;;;;;;9.10;6.37;;;7.90;99.90;7.80;97390.00;;;;4899686;28;92869;-63
2024/03/28 01:46:50;;;;;;;6.30;5.43;;;7.90;99.90;7.80;97383.00;;;;4916022;28;94676;-63
2024/03/28 01:49:17;;;;;;;6.97;6.07;;;7.90;99.90;7.80;97397.00;;;;4901414;28;123101;-62
2024/03/28 01:51:44;;;;;;;8.43;5.87;;;7.90;99.90;7.80;97391.00;;;;4900212;28;100348;-63
2024/03/28 01:54:13;;;;;;;6.23;5.50;;;7.90;99.90;7.80;97394.00;;;;4897880;28;108577;-62
2024/03/28 01:56:40;;;;;;;6.93;5.20;;;7.90;99.90;7.80;97404.00;;;;4899000;28;112677;-62
2024/03/28 01:59:07;;;;;;;9.10;6.17;;;7.90;99.90;7.80;97404.00;;;;4900895;28;107896;-63
2024/03/28 02:01:37;;;;;;;10.40;5.57;;;7.90;99.90;7.90;97409.00;;;;4899163;28;109964;-62
2024/03/28 02:04:03;;;;;;;6.73;5.10;;;8.00;99.90;8.00;97404.00;;;;4894251;28;93406;-62
2024/03/28 02:06:29;;;;;;;9.27;5.77;;;8.00;99.90;8.20;97401.00;;;;4894575;28;92965;-62
2024/03/28 02:08:55;;;;;;;9.03;5.30;;;8.20;99.90;8.50;97410.00;;;;4899534;28;120857;-63
2024/03/28 02:11:20;;;;;;;6.63;4.53;;;8.40;99.90;8.80;97414.00;;;;4901990;28;104665;-62
2024/03/28 02:13:46;;;;;;;7.50;4.93;;;8.70;99.90;9.00;97405.00;;;;4898658;28;108207;-62
2024/03/28 02:16:12;;;;;;;7.63;5.47;;;9.00;99.90;9.30;97412.00;;;;4896049;28;121692;-63
2024/03/28 02:18:37;;;;;;;4.80;4.30;;;9.30;99.90;9.50;97423.00;;;;4904150;28;121458;-62
2024/03/28 02:21:03;;;;;;;7.27;4.83;;;9.40;99.90;9.70;97429.00;;;;4896800;28;109822;-62
2024/03/28 02:23:29;;;;;;;5.53;4.03;;;10.40;99.90;9.90;97413.00;;;;4900867;28;109663;-63
2024/03/28 02:25:55;;;;;;;6.20;4.87;;;9.80;99.90;10.00;97420.00;;;;4901927;28;121088;-63
2024/03/28 02:28:21;;;;;;;8.07;5.60;;;9.90;99.90;10.10;97429.00;;;;4892667;28;120851;-62
2024/03/28 02:30:46;;;;;;;6.13;4.57;;;10.10;99.90;10.30;97430.00;;;;4897160;28;110373;-62
2024/03/28 02:33:12;;;;;;;5.87;4.80;;;10.30;99.90;10.40;97430.00;;;;4896598;28;107978;-63
2024/03/28 02:35:38;;;;;;;6.63;4.10;;;10.40;99.90;10.60;97451.00;;;;4896321;28;122198;-63
2024/03/28 02:38:04;;;;;;;10.53;5.10;;;10.50;99.90;10.70;97446.00;;;;4897969;28;122545;-63
2024/03/28 02:40:29;;;;;;;9.67;6.20;;;10.70;99.90;10.90;97457.00;;;;4897110;28;94277;-62
2024/03/28 02:42:55;;;;;;;10.00;5.30;;;10.80;99.90;11.00;97472.00;;;;4893014;28;108311;-63
2024/03/28 02:45:21;;;;;;;7.00;5.17;;;10.90;99.90;11.10;97477.00;;;;4894787;28;122097;-62
2024/03/28 02:47:46;;;;;;;7.03;5.73;;;11.10;99.90;11.20;97477.00;;;;4896591;28;122819;-63
2024/03/28 02:50:12;;;;;;;14.30;7.30;;;11.20;99.90;11.30;97479.00;;;;4895057;28;111193;-63
2024/03/28 02:52:40;;;;;;;11.07;7.43;;;11.30;99.90;11.40;97473.00;;;;4897136;28;107956;-62
2024/03/28 02:55:06;;;;;;;10.40;7.40;;;11.30;99.90;11.50;97480.00;;;;4894963;28;120004;-63
2024/03/28 02:57:32;;;;;;;15.07;8.03;;;11.40;99.90;11.50;97469.00;;;;4891766;28;112089;-63
2024/03/28 02:59:57;;;;;;;10.23;6.87;;;11.50;99.90;11.60;97471.00;;;;4897969;28;111721;-62
2024/03/28 03:02:23;;;;;;;13.00;8.57;;;11.60;99.90;11.60;97477.00;;;;4896949;28;108749;-63
2024/03/28 03:04:49;;;;;;;14.23;8.40;;;11.60;99.90;11.60;97489.00;;;;4903954;28;102106;-63
2024/03/28 03:07:15;;;;;;;12.20;7.73;;;11.60;99.90;11.60;97488.00;;;;4901587;28;111994;-63
2024/03/28 03:09:42;;;;;;;10.73;8.70;;;11.60;99.90;11.50;97491.00;;;;4898391;28;93301;-63
2024/03/28 03:12:08;;;;;;;14.23;7.53;;;11.60;99.90;11.50;97488.00;;;;4893754;28;92789;-63
2024/03/28 03:14:33;;;;;;;8.23;6.07;;;12.10;99.90;11.40;97489.00;;;;4899681;28;95510;-63
2024/03/28 03:16:59;;;;;;;8.73;6.47;;;11.50;99.90;11.40;97479.00;;;;4897907;28;122166;-64
2024/03/28 03:19:25;;;;;;;8.33;6.50;;;11.40;99.90;11.30;97489.00;;;;4899396;28;92236;-62
2024/03/28 03:21:52;;;;;;;6.67;4.63;;;11.40;99.90;11.40;97498.00;;;;4898467;28;108543;-63
2024/03/28 03:24:21;;;;;;;5.10;4.17;;;11.40;99.90;11.40;97503.00;;;;4900434;28;94025;-62
2024/03/28 03:26:49;;;;;;;7.83;4.37;;;11.40;99.90;11.40;97498.00;;;;4903194;28;95174;-63
2024/03/28 03:34:49;;;;;;;3.83;2.80;;;11.50;99.90;11.50;97513.00;;;;4896096;28;93045;-63
2024/03/28 03:37:24;;;;;;;3.17;2.20;;;11.50;99.90;11.50;97515.00;;;;4900261;28;93353;-63
2024/03/28 03:39:59;;;;;;;4.20;3.40;;;11.60;99.90;11.50;97515.00;;;;4901589;28;97567;-62
2024/03/28 03:42:25;;;;;;;4.50;3.20;;;11.60;99.90;11.60;97519.00;;;;4895281;28;92996;-62
2024/03/28 03:44:51;;;;;;;3.10;2.27;;;11.60;99.90;11.60;97503.00;;;;4893483;28;121735;-61
2024/03/28 03:47:17;;;;;;;4.73;1.73;;;11.60;99.90;11.50;97526.00;;;;4896889;28;121226;-63
2024/03/28 03:49:44;;;;;;;1.33;1.00;;;11.50;99.90;11.50;97526.00;;;;4897768;28;108519;-62
2024/03/28 03:52:10;;;;;;;0.93;0.80;;;11.50;99.90;11.40;97532.00;;;;4899408;28;93839;-62
2024/03/28 03:54:37;;;;;;;1.90;0.83;;;11.40;99.90;11.20;97537.00;;;;4900422;28;109973;-63
2024/03/28 03:57:04;;;;;;;0.43;0.30;;;11.30;99.90;11.10;97544.00;;;;4898015;28;116544;-63
2024/03/28 03:59:29;;;;;;;1.50;0.60;;;11.20;99.90;10.90;97533.00;;;;4899493;28;102421;-64
2024/03/28 04:01:55;;;;;;;1.33;0.40;;;11.00;99.90;10.70;97559.00;;;;4886311;28;101763;-62
2024/03/28 04:04:21;;;;;;;0.63;0.37;;;10.90;99.90;10.60;97560.00;;;;4891581;28;123797;-62
2024/03/28 04:06:46;;;;;;;0.40;0.40;;;10.70;99.90;10.50;97570.00;;;;4895115;28;121057;-63
2024/03/28 04:09:12;;;;;;;0.60;0.30;;;10.60;99.90;10.30;97569.00;;;;4895588;28;109994;-62
2024/03/28 04:11:37;;;;;;;0.17;0.17;;;10.40;99.90;10.20;97574.00;;;;4894981;28;109141;-62
2024/03/28 04:14:03;;;;;;;0.77;0.43;;;10.30;99.90;10.00;97577.00;;;;4903009;28;122593;-62
2024/03/28 04:16:29;;;;;;;0.20;0.20;;;10.20;99.90;9.90;97584.00;;;;4896281;28;122513;-63
2024/03/28 04:18:55;;;;;;;1.00;0.47;;;10.00;99.90;9.80;97596.00;;;;4894300;28;111281;-62
2024/03/28 04:21:20;;;;;;;0.20;0.20;;;9.90;99.90;9.70;97564.00;;;;4896233;28;93192;-63
2024/03/28 04:23:46;;;;;;;0.20;0.20;;;9.80;99.90;9.60;97612.00;;;;4893178;28;122995;-63
2024/03/28 04:26:12;;;;;;;0.30;0.30;;;9.70;99.90;9.50;97624.00;;;;4891813;28;122653;-63
2024/03/28 04:28:38;;;;;;;0.63;0.43;;;9.60;99.90;9.40;97626.00;;;;4898375;28;109563;-63
2024/03/28 04:31:04;;;;;;;0.57;0.40;;;9.50;99.90;9.30;97625.00;;;;4911133;28;92783;-63
2024/03/28 04:33:29;;;;;;;0.37;0.37;;;9.50;99.90;9.20;97633.00;;;;4899592;28;121171;-62
2024/03/28 04:35:55;;;;;;;0.63;0.57;;;9.40;99.90;9.10;97617.00;;;;4893544;28;122143;-62
2024/03/28 04:38:21;;;;;;;0.60;0.50;;;9.30;99.90;9.10;97631.00;;;;4892240;28;110545;-63
2024/03/28 04:40:46;;;;;;;0.30;0.30;;;9.20;99.90;9.00;97631.00;;;;4896713;28;106910;-62
2024/03/28 04:43:12;;;;;;;0.50;0.50;;;9.10;99.90;8.90;97613.00;;;;4895178;28;123786;-63
2024/03/28 04:45:38;;;;;;;0.33;0.30;;;9.10;99.90;8.80;97640.00;;;;4893463;28;121334;-64
2024/03/28 04:48:04;;;;;;;0.73;0.60;;;8.90;99.90;8.70;97645.00;;;;4895644;28;109215;-62
2024/03/28 04:50:30;;;;;;;1.10;0.60;;;8.90;99.90;8.60;97652.00;;;;4892635;28;96632;-63
2024/03/28 04:52:55;;;;;;;1.17;0.60;;;8.70;99.90;8.40;97646.00;;;;4891078;28;122231;-63
2024/03/28 04:55:21;;;;;;;0.83;0.50;;;8.60;99.90;8.30;97644.00;;;;4895691;28;118130;-64
2024/03/28 04:57:47;;;;;;;0.33;0.30;;;8.50;99.90;8.30;97642.00;;;;4895341;28;108909;-63
2024/03/28 05:00:14;;;;;;;0.80;0.60;;;8.40;99.90;8.20;97635.00;;;;4894199;28;109014;-64
2024/03/28 05:02:40;;;;;;;0.30;0.30;;;8.40;99.90;8.20;97643.00;;;;4895936;28;112920;-63
2024/03/28 05:05:08;;;;;;;0.77;0.77;;;8.30;99.90;8.20;97646.00;;;;4895724;28;94206;-64
2024/03/28 05:07:37;;;;;;;0.20;0.20;;;8.30;99.90;8.10;97653.00;;;;4883601;28;93116;-64
2024/03/28 05:10:07;;;;;;;0.50;0.50;;;8.20;99.90;8.10;97650.00;;;;4897921;28;92764;-63
2024/03/28 05:12:32;;;;;;;0.40;0.40;;;8.20;99.90;8.10;97664.00;;;;4893791;28;93854;-63
2024/03/28 05:14:58;;;;;;;0.20;0.20;;;8.20;99.90;8.00;97663.00;;;;4894563;28;120242;-63
2024/03/28 05:17:26;;;;;;;0.50;0.20;;;8.50;99.90;8.00;97663.00;;;;4897912;28;110329;-63
2024/03/28 05:19:52;;;;;;;0.50;0.50;;;8.10;99.90;7.90;97652.00;;;;4887383;28;108743;-64
2024/03/28 05:22:17;;;;;;;0.70;0.60;;;8.10;99.90;7.90;97651.00;;;;4896613;28;122386;-65
2024/03/28 05:24:43;;;;;;;0.40;0.40;;;8.00;99.90;7.80;97661.00;;;;4892156;28;120369;-65
2024/03/28 05:27:12;;;;;;;0.30;0.30;;;8.00;99.90;7.90;97656.00;;;;4897130;28;111953;-65
2024/03/28 05:29:41;;;;;;;0.40;0.40;;;8.00;99.90;7.80;97657.00;;;;4898822;28;93719;-65
2024/03/28 05:32:10;;;;;;;0.53;0.43;;;7.90;99.90;7.80;97660.00;;;;4895813;28;94143;-65
2024/03/28 05:34:35;;;;;;;1.23;0.30;;;7.90;99.90;7.80;97656.00;;;;4896705;28;115911;-66
2024/03/28 05:37:01;;;;;;;0.73;0.47;;;7.90;99.90;7.80;97651.00;;;;4897021;28;109691;-65
2024/03/28 05:39:27;;;;;;;0.90;0.50;;;7.90;99.90;7.80;97668.00;;;;4894525;28;93112;-64
2024/03/28 05:41:54;;;;;;;0.70;0.40;;;7.90;99.90;7.80;97674.00;;;;4894867;28;105967;-64
2024/03/28 05:44:19;;;;;;;1.03;0.90;;;7.90;99.90;7.80;97688.00;;;;4891906;28;115885;-64
2024/03/28 05:46:46;;;;;;;0.53;0.47;;;7.90;99.90;7.80;97696.00;;;;4891857;28;92110;-64
2024/03/28 05:49:12;;;;;;;1.07;0.97;;;7.90;99.90;7.90;97698.00;;;;4894519;28;109262;-64
2024/03/28 05:51:37;;;;;;;1.20;0.97;;;7.90;99.90;7.90;97706.00;;;;4894110;28;122117;-65
2024/03/28 05:54:03;;;;;;;2.60;0.97;;;8.00;99.90;7.90;97707.00;;;;4894173;28;121249;-64
2024/03/28 05:56:29;;;;;;;0.80;0.70;;;8.00;99.90;7.90;97706.00;;;;4894379;28;111304;-65
2024/03/28 05:58:54;;;;;;;1.37;1.17;;;8.00;99.90;8.00;97705.00;;;;4894384;28;108121;-64
2024/03/28 06:01:20;;;;;;;0.80;0.70;;;8.10;99.90;8.00;97713.00;;;;4890265;28;92856;-64
2024/03/28 06:03:46;;;;;;;1.07;0.60;;;8.10;99.90;8.00;97715.00;;;;4897824;28;124104;-64
2024/03/28 06:06:11;;;;;;;1.43;1.03;;;8.10;99.90;8.00;97719.00;;;;4892729;28;97962;-63
2024/03/28 06:08:39;;;;;;;1.43;0.67;;;8.10;99.90;8.00;97742.00;;;;4896278;28;108357;-64
2024/03/28 06:11:05;;;;;;;0.97;0.80;;;8.10;99.90;8.10;97739.00;;;;4897614;28;92661;-64
2024/03/28 06:13:33;;;;;;;0.43;0.23;;;8.10;99.90;8.00;97755.00;;;;4894654;28;92895;-63
2024/03/28 06:15:59;;;;;;;0.63;0.63;;;8.10;99.90;8.10;97760.00;;;;4896052;28;103761;-65
2024/03/28 06:18:26;;;;;;;3.57;0.80;;;8.20;99.90;8.10;97787.00;;;;4898335;28;94066;-64
2024/03/28 06:21:04;;;;;;;0.53;0.37;;;8.20;99.90;8.10;97790.00;;;;4895895;28;93847;-64
2024/03/28 06:23:31;;;;;;;0.53;0.50;;;8.20;99.90;8.10;97804.00;;;;4891069;28;105427;-64
2024/03/28 06:26:01;;;;;;;0.20;0.20;;;8.20;99.90;8.10;97793.00;;;;4894244;28;103003;-64
2024/03/28 06:28:27;;;;;;;0.30;0.30;;;8.20;99.90;8.10;97793.00;;;;4903070;28;96040;-64
2024/03/28 06:30:56;;;;;;;0.37;0.37;;;8.20;99.90;8.10;97783.00;;;;4890310;28;112624;-64
2024/03/28 06:33:22;;;;;;;0.20;0.20;;;8.20;99.90;8.10;97806.00;;;;4894017;28;93309;-63
2024/03/28 06:35:49;;;;;;;2.10;0.20;;;8.30;99.90;8.10;97802.00;;;;4890774;28;104337;-63
2024/03/28 06:38:15;;;;;;;0.27;0.27;;;8.20;99.90;8.20;97797.00;;;;4890052;28;98431;-63
2024/03/28 06:40:40;;;;;;;0.20;0.20;;;8.20;99.90;8.20;97801.00;;;;4885350;28;111539;-64
2024/03/28 06:43:07;;;;;;;0.57;0.30;;;8.20;99.90;8.20;97806.00;;;;4888181;28;124130;-64
2024/03/28 06:45:33;;;;;;;1.63;0.30;;;8.20;99.90;8.20;97802.00;;;;4893620;28;93128;-63
2024/03/28 06:47:59;;;;;;;0.10;0.10;;;8.20;99.90;8.20;97826.00;;;;4893685;28;107072;-65
2024/03/28 06:50:25;;;;;;;0.20;0.20;;;8.30;99.90;8.30;97819.00;;;;4892612;28;120562;-64
2024/03/28 06:52:52;;;;;;;0.10;0.10;;;8.30;99.90;8.30;97816.00;;;;4893222;28;92825;-64
2024/03/28 06:55:19;;;;;;;0.40;0.40;;;8.40;99.90;8.30;97818.00;;;;4894907;28;95770;-64
2024/03/28 06:57:44;;;;;;;0.20;0.20;;;8.40;99.90;8.30;97815.00;;;;4899117;28;92908;-65
2024/03/28 07:00:12;;;;;;;0.10;0.10;;;8.40;99.90;8.40;97822.00;;;;4890598;28;121383;-64
2024/03/28 07:02:38;;;;;;;0.10;0.10;;;8.50;99.90;8.50;97826.00;;;;4894120;28;92913;-64
2024/03/28 07:05:04;;;;;;;0.17;0.17;;;8.50;99.90;8.50;97828.00;;;;4890564;28;100563;-64
2024/03/28 07:07:30;;;;;;;0.20;0.20;;;8.60;99.90;8.60;97834.00;;;;4894128;28;97582;-64
2024/03/28 07:09:57;;;;;;;0.20;0.20;;;8.60;99.90;8.60;97829.00;;;;4891732;28;122869;-63
2024/03/28 07:12:23;;;;;;;1.73;0.30;;;8.70;99.90;8.60;97831.00;;;;4894404;28;113674;-64
2024/03/28 07:14:49;;;;;;;0.40;0.30;;;8.70;99.90;8.60;97832.00;;;;4893809;28;92929;-63
2024/03/28 07:17:15;;;;;;;0.10;0.10;;;8.70;99.90;8.70;97811.00;;;;4888865;28;107958;-64
2024/03/28 07:19:41;;;;;;;0.30;0.30;;;8.70;99.90;8.60;97811.00;;;;4893058;28;94160;-64
2024/03/28 07:22:09;;;;;;;0.10;0.10;;;8.70;99.90;8.70;97820.00;;;;4894579;28;123604;-64
2024/03/28 07:24:35;;;;;;;0.30;0.23;;;8.80;99.90;8.70;97799.00;;;;4892891;28;92396;-63
2024/03/28 07:27:01;;;;;;;0.40;0.40;;;8.70;99.90;8.70;97807.00;;;;4892755;28;92939;-63
2024/03/28 07:29:28;;;;;;;0.60;0.30;;;8.80;99.90;8.80;97815.00;;;;4895253;28;93313;-64
2024/03/28 07:31:53;;;;;;;1.10;0.30;;;8.80;99.90;8.70;97820.00;;;;4891902;28;99605;-64
2024/03/28 07:34:19;;;;;;;0.40;0.17;;;8.80;99.90;8.70;97823.00;;;;4892237;28;108798;-64
2024/03/28 07:36:45;;;;;;;0.40;0.20;;;8.80;99.90;8.70;97821.00;;;;4894233;28;100139;-65
2024/03/28 07:39:11;;;;;;;0.83;0.10;;;8.70;99.90;8.70;97813.00;;;;4878841;28;122770;-64
2024/03/28 07:41:37;;;;;;;0.13;0.13;;;8.70;99.90;8.70;97814.00;;;;4888689;28;94083;-65
2024/03/28 07:44:03;;;;;;;0.10;0.10;;;8.70;99.90;8.70;97820.00;;;;4887875;28;109973;-64
2024/03/28 07:46:29;;;;;;;0.27;0.20;;;8.60;99.90;8.60;97828.00;;;;4891151;28;109581;-64
2024/03/28 07:48:55;;;;;;;0.30;0.30;;;8.70;99.90;8.60;97836.00;;;;4895029;28;92060;-64
2024/03/28 07:51:21;;;;;;;0.30;0.30;;;8.70;99.90;8.60;97840.00;;;;4894906;28;96198;-64
2024/03/28 07:53:46;;;;;;;0.30;0.20;;;8.70;99.90;8.60;97833.00;;;;4891371;28;110579;-63
2024/03/28 07:56:12;;;;;;;0.20;0.20;;;8.70;99.90;8.60;97844.00;;;;4892323;28;108390;-64
2024/03/28 07:58:38;;;;;;;2.73;0.30;;;8.70;99.90;8.70;97836.00;;;;4855126;28;93228;-65
2024/03/28 08:01:08;;;;;;;0.33;0.30;;;8.70;99.90;8.70;97818.00;;;;4872778;28;119830;-64
2024/03/28 08:03:35;;;;;;;0.60;0.40;;;8.70;99.90;8.70;97831.00;;;;4896156;28;93650;-63
2024/03/28 08:06:02;;;;;;;0.50;0.20;;;8.80;99.90;8.80;97830.00;;;;4894822;28;93140;-64
2024/03/28 08:08:27;;;;;;;0.77;0.50;;;8.80;99.90;8.80;97829.00;;;;4889463;28;117074;-64
2024/03/28 08:10:54;;;;;;;0.27;0.20;;;8.90;99.90;8.90;97844.00;;;;4890806;28;122347;-64
2024/03/28 08:13:19;;;;;;;0.57;0.37;;;8.90;99.90;9.00;97840.00;;;;4893545;28;92226;-65
2024/03/28 08:15:45;;;;;;;0.83;0.37;;;9.00;99.90;9.10;97847.00;;;;4891771;28;108032;-64
2024/03/28 08:18:11;;;;;;;0.50;0.23;;;9.10;99.90;9.20;97832.00;;;;4891187;28;124173;-62
2024/03/28 08:20:36;;;;;;;0.60;0.40;;;9.20;99.90;9.40;97831.00;;;;4893771;28;94736;-62
2024/03/28 08:23:02;;;;;;;0.73;0.47;;;9.30;99.90;9.50;97836.00;;;;4895302;28;110574;-62
2024/03/28 08:25:28;;;;;;;0.40;0.40;;;9.50;99.90;9.60;97838.00;;;;4894617;28;92891;-62
2024/03/28 08:27:56;;;;;;;0.37;0.37;;;9.60;99.90;9.70;97837.00;;;;4891586;28;122612;-63
2024/03/28 08:30:22;;;;;;;1.17;0.73;;;9.60;99.90;9.80;97829.00;;;;4896363;28;92978;-64
2024/03/28 08:32:47;;;;;;;0.60;0.40;;;9.80;99.90;9.90;97849.00;;;;4891171;28;93159;-63
2024/03/28 08:35:13;;;;;;;0.30;0.30;;;9.90;99.90;10.00;97845.00;;;;4893467;28;109083;-63
2024/03/28 08:37:40;;;;;;;0.10;0.10;;;10.00;99.90;10.00;97856.00;;;;4896254;28;93376;-63
2024/03/28 08:40:09;;;;;;;1.20;0.40;;;10.00;99.90;10.10;97861.00;;;;4895749;28;95245;-62
2024/03/28 08:42:39;;;;;;;0.37;0.37;;;10.10;99.90;10.20;97862.00;;;;4893263;28;93218;-63
2024/03/28 08:45:08;;;;;;;0.33;0.33;;;10.20;99.90;10.30;97859.00;;;;4895449;28;94358;-62
2024/03/28 08:47:35;;;;;;;0.50;0.47;;;10.30;99.90;10.40;97863.00;;;;4888807;28;93872;-63
2024/03/28 08:50:03;;;;;;;0.40;0.40;;;10.30;99.90;10.50;97868.00;;;;4895334;28;93414;-63
2024/03/28 08:52:30;;;;;;;4.27;0.93;;;10.40;99.90;10.50;97870.00;;;;4894589;28;93112;-64
2024/03/28 08:54:56;;;;;;;0.30;0.30;;;10.50;99.90;10.60;97878.00;;;;4888359;28;92962;-63
2024/03/28 08:57:23;;;;;;;0.50;0.40;;;10.50;99.90;10.70;97865.00;;;;4889403;28;95597;-62
2024/03/28 08:59:52;;;;;;;0.87;0.33;;;10.70;99.90;10.90;97874.00;;;;4892626;28;93735;-63
2024/03/28 09:02:24;;;;;;;8.83;0.97;;;10.80;99.90;11.10;97869.00;;;;4892380;28;103686;-63
2024/03/28 09:04:50;;;;;;;0.90;0.90;;;11.10;99.90;11.40;97855.00;;;;4894299;28;92826;-63
2024/03/28 09:07:16;;;;;;;0.77;0.77;;;11.30;99.90;11.60;97866.00;;;;4894047;28;112924;-63
2024/03/28 09:09:42;;;;;;;0.90;0.83;;;11.50;99.90;11.70;97859.00;;;;4892248;28;113723;-64
2024/03/28 09:12:10;;;;;;;1.13;0.77;;;11.70;99.90;11.80;97863.00;;;;4897124;28;105194;-63
2024/03/28 09:14:39;;;;;;;1.70;1.17;;;11.80;99.90;11.90;97852.00;;;;4897150;28;94265;-65
2024/03/28 09:17:07;;;;;;;0.93;0.93;;;11.90;99.90;12.10;97851.00;;;;4890669;28;95271;-63
2024/03/28 09:19:34;;;;;;;2.07;1.07;;;12.00;99.90;12.40;97854.00;;;;4887810;28;93938;-65
2024/03/28 09:22:01;;;;;;;3.87;1.27;;;12.60;99.90;12.70;97856.00;;;;4893579;28;93650;-65
2024/03/28 09:24:26;;;;;;;1.00;0.90;;;12.50;99.50;12.90;97850.00;;;;4890497;28;93159;-64
2024/03/28 09:26:52;;;;;;;1.60;1.23;;;12.70;98.70;13.00;97860.00;;;;4892630;28;115751;-64
2024/03/28 09:29:21;;;;;;;1.10;0.60;;;12.90;98.00;13.10;97874.00;;;;4891225;28;121421;-65
2024/03/28 09:31:48;;;;;;;0.90;0.70;;;13.00;97.80;13.10;97893.00;;;;4895389;28;92810;-65
2024/03/28 09:34:15;;;;;;;4.50;1.07;;;13.10;96.00;13.00;97870.00;;;;4893880;28;94127;-62
2024/03/28 09:36:41;;;;;;;1.40;1.20;;;13.00;95.80;13.00;97902.00;;;;4895417;28;100088;-65
2024/03/28 09:39:08;;;;;;;1.10;1.00;;;13.00;95.10;13.10;97897.00;;;;4895040;28;100190;-64
2024/03/28 09:41:34;;;;;;;1.10;1.00;;;13.00;95.10;13.20;97894.00;;;;4894753;28;93108;-64
2024/03/28 09:44:05;;;;;;;1.70;1.23;;;12.80;95.00;13.30;97898.00;;;;4884936;28;97851;-63
2024/03/28 09:46:33;;;;;;;2.80;0.97;;;13.30;94.80;13.50;97900.00;;;;4892539;28;92952;-63
2024/03/28 09:49:00;;;;;;;1.92;1.35;;;13.40;94.60;13.70;97900.00;;;;4893584;28;93374;-63
2024/03/28 09:51:27;;;;;;;2.27;0.80;;;13.60;94.10;13.90;97897.00;;;;4895051;28;92234;-64
2024/03/28 09:53:54;;;;;;;1.70;1.00;;;13.80;93.70;14.20;97893.00;;;;4896268;28;93587;-63
2024/03/28 09:56:20;;;;;;;0.83;0.83;;;13.90;92.70;14.40;97896.00;;;;4884958;28;111403;-63
2024/03/28 09:58:46;;;;;;;1.40;0.95;;;14.20;92.50;14.60;97883.00;;;;4893626;28;123434;-62
2024/03/28 10:01:13;;;;;;;1.35;0.90;;;14.40;90.90;14.80;97877.00;;;;4907932;28;106493;-62
2024/03/28 10:03:42;;;;;;;0.52;0.52;;;14.60;89.80;14.90;97877.00;;;;4894611;28;93108;-63
2024/03/28 10:06:08;;;;;;;1.55;0.90;;;14.50;86.80;15.00;97877.00;;;;4894687;28;93550;-63
2024/03/28 10:08:34;;;;;;;1.02;0.88;;;14.70;86.50;15.20;97872.00;;;;4893186;28;122394;-64
2024/03/28 10:11:00;;;;;;;1.13;0.70;;;15.00;87.80;15.60;97869.00;;;;4895170;28;109072;-63
2024/03/28 10:13:36;;;;;;;0.63;0.60;;;15.20;87.10;15.70;97868.00;;;;4895654;28;109277;-64
2024/03/28 10:16:04;;;;;;;1.45;1.05;;;15.50;82.30;15.70;97864.00;;;;4874543;28;110804;-62
2024/03/28 10:18:31;;;;;;;0.90;0.60;;;15.50;80.80;15.80;97870.00;;;;4893536;28;93237;-64
2024/03/28 10:20:57;;;;;;;1.00;0.70;;;15.60;79.20;15.80;97881.00;;;;4894429;28;94279;-63
2024/03/28 10:23:26;;;;;;;0.98;0.82;;;15.70;78.60;15.90;97884.00;;;;4894207;28;109276;-62
2024/03/28 10:25:53;;;;;;;1.45;0.88;;;15.70;77.90;16.00;97888.00;;;;4892914;28;122757;-63
2024/03/28 10:28:22;;;;;;;1.38;0.65;;;15.80;78.20;16.10;97872.00;;;;4892847;28;112944;-63
2024/03/28 10:30:52;;;;;;;0.50;0.50;;;15.90;75.70;16.30;97869.00;;;;4892168;28;92862;-64
2024/03/28 10:33:19;;;;;;;1.45;1.00;;;16.10;76.80;16.50;97862.00;;;;4889689;28;92944;-63
2024/03/28 10:35:59;;;;;;;1.08;0.80;;;16.30;74.70;16.70;97862.00;;;;4896302;28;92788;-64
2024/03/28 10:38:25;;;;;;;2.97;0.75;;;16.50;71.60;16.70;97871.00;;;;4896929;28;116058;-63
2024/03/28 10:40:55;;;;;;;1.20;0.70;;;16.60;69.80;16.80;97881.00;;;;4889070;28;110908;-63
2024/03/28 10:43:25;;;;;;;1.13;0.85;;;16.60;70.60;17.00;97889.00;;;;4887999;28;94016;-64
2024/03/28 10:45:53;;;;;;;0.88;0.75;;;16.70;69.70;17.20;97887.00;;;;4890207;28;92932;-63
2024/03/28 10:48:19;;;;;;;0.68;0.47;;;17.00;69.80;17.40;97892.00;;;;4892474;28;95657;-63
2024/03/28 10:51:23;;;;;;;1.77;0.57;;;17.20;68.80;17.50;97906.00;;;;4896968;28;101262;-64
2024/03/28 10:54:01;;;;;;;0.43;0.40;;;17.30;64.80;17.60;97901.00;;;;4899369;28;98509;-64
2024/03/28 10:56:31;;;;;;;0.40;0.40;;;17.40;64.40;17.70;97918.00;;;;4890784;28;93816;-64
2024/03/28 10:59:01;;;;;;;0.55;0.43;;;17.50;64.00;17.80;97934.00;;;;4899313;28;92904;-64
2024/03/28 11:01:33;;;;;;;0.70;0.57;;;17.60;60.40;18.00;97939.00;;;;4893386;28;93044;-63
2024/03/28 11:04:02;;;;;;;2.45;0.60;;;17.80;62.20;18.20;97926.00;;;;4883577;28;98104;-63